Time;durP1;ratioP1;P1;durP2;ratioP2;P2;SDS_P1;SDS_P2;PMS_P1;PMS_P2;Temp;Humidity;BMP_temperature;BMP_pressure;BME280_temperature;BME280_humidity;BME280_pressure;Samples;Min_cycle;Max_cycle;Signal;HPM_P1;HPM_P2
2023/03/27 00:00:52;;;;;;;0.50;0.50;;;5.80;99.90;;;;;;5150254;27;20033;-73
2023/03/27 00:03:19;;;;;;;0.50;0.50;;;5.90;99.90;;;;;;5150495;27;20078;-73
2023/03/27 00:05:45;;;;;;;2.78;0.77;;;5.90;99.90;;;;;;5136545;27;20030;-73
2023/03/27 00:08:11;;;;;;;0.80;0.68;;;5.90;99.90;;;;;;5128933;27;20027;-73
2023/03/27 00:10:37;;;;;;;0.45;0.45;;;5.80;99.90;;;;;;5139337;27;20461;-73
2023/03/27 00:13:04;;;;;;;1.95;0.38;;;6.00;99.90;;;;;;5138360;27;20389;-73
2023/03/27 00:15:31;;;;;;;1.17;0.90;;;6.00;99.90;;;;;;5143572;27;20033;-72
2023/03/27 00:18:02;;;;;;;0.80;0.80;;;6.00;99.90;;;;;;5154223;27;20056;-70
2023/03/27 00:20:30;;;;;;;0.60;0.60;;;6.00;99.90;;;;;;5134798;27;20031;-72
2023/03/27 00:22:56;;;;;;;0.68;0.68;;;5.90;99.90;;;;;;5154078;27;20456;-72
2023/03/27 00:25:25;;;;;;;0.73;0.73;;;5.80;99.90;;;;;;5151219;27;20126;-73
2023/03/27 00:27:52;;;;;;;0.68;0.68;;;5.90;99.90;;;;;;5127259;27;20031;-74
2023/03/27 00:30:19;;;;;;;1.40;0.80;;;5.90;99.90;;;;;;5147314;27;20118;-73
2023/03/27 00:32:45;;;;;;;1.42;1.00;;;5.80;99.90;;;;;;5150349;27;20030;-73
2023/03/27 00:35:11;;;;;;;1.50;1.40;;;5.80;99.90;;;;;;5141342;27;20072;-73
2023/03/27 00:37:37;;;;;;;1.67;1.17;;;5.70;99.90;;;;;;5152879;27;20026;-71
2023/03/27 00:40:07;;;;;;;1.50;1.40;;;5.60;99.90;;;;;;5148531;27;20038;-71
2023/03/27 00:42:34;;;;;;;1.65;1.20;;;5.60;99.90;;;;;;5135841;27;20088;-73
2023/03/27 00:45:01;;;;;;;1.95;1.80;;;5.60;99.90;;;;;;5152690;27;20034;-70
2023/03/27 00:47:37;;;;;;;1.40;1.30;;;5.60;99.90;;;;;;5147126;27;20455;-72
2023/03/27 00:50:09;;;;;;;1.67;1.30;;;5.70;99.90;;;;;;5144664;27;20457;-73
2023/03/27 00:52:36;;;;;;;1.30;1.20;;;5.70;99.90;;;;;;5153930;27;20031;-73
2023/03/27 00:55:09;;;;;;;1.48;0.85;;;5.60;99.90;;;;;;5134730;27;20110;-70
2023/03/27 00:57:35;;;;;;;0.55;0.55;;;5.60;99.90;;;;;;5143291;27;20034;-72
2023/03/27 01:00:09;;;;;;;1.20;1.00;;;5.60;99.90;;;;;;5151986;27;20030;-70
2023/03/27 01:02:35;;;;;;;1.10;0.85;;;5.50;99.90;;;;;;5141842;27;20042;-72
2023/03/27 01:05:01;;;;;;;0.50;0.50;;;5.60;99.90;;;;;;5148898;27;20027;-71
2023/03/27 01:07:27;;;;;;;0.47;0.40;;;5.60;99.90;;;;;;5151460;27;20034;-73
2023/03/27 01:09:53;;;;;;;0.65;0.47;;;5.50;99.90;;;;;;5151756;27;20023;-73
2023/03/27 01:12:33;;;;;;;0.60;0.60;;;5.50;99.90;;;;;;5146898;27;20109;-73
2023/03/27 01:15:05;;;;;;;;;;;5.40;99.90;;;;;;5145960;27;20135;-70
2023/03/27 01:17:53;;;;;;;0.90;0.90;;;5.40;99.90;;;;;;5153083;27;19907;-72
2023/03/27 01:20:43;;;;;;;0.68;0.68;;;5.30;99.90;;;;;;5140919;27;20062;-72
2023/03/27 01:23:27;;;;;;;0.93;0.80;;;5.30;99.90;;;;;;5144961;27;20062;-72
2023/03/27 01:26:15;;;;;;;1.20;1.10;;;5.30;99.90;;;;;;5143553;27;20054;-73
2023/03/27 01:28:58;;;;;;;0.60;0.60;;;5.20;99.90;;;;;;5132633;27;20039;-71
2023/03/27 01:31:35;;;;;;;0.65;0.65;;;5.20;99.90;;;;;;5136211;27;20497;-72
2023/03/27 01:34:08;;;;;;;1.10;0.88;;;5.10;99.90;;;;;;5139495;27;20101;-69
2023/03/27 01:37:08;;;;;;;1.67;1.20;;;5.20;99.90;;;;;;5133370;27;20103;-72
2023/03/27 01:40:11;;;;;;;1.27;1.10;;;5.10;99.90;;;;;;5139973;27;20115;-72
2023/03/27 01:42:46;;;;;;;0.80;0.80;;;5.10;99.90;;;;;;5112280;27;20049;-72
2023/03/27 01:45:18;;;;;;;1.15;0.90;;;5.10;99.90;;;;;;5142635;27;20031;-72
2023/03/27 01:48:09;;;;;;;1.63;0.90;;;5.10;99.90;;;;;;5134472;27;20138;-70
2023/03/27 01:50:47;;;;;;;2.35;1.58;;;5.10;99.90;;;;;;5131908;27;20122;-72
2023/03/27 01:53:15;;;;;;;1.67;1.20;;;5.10;99.90;;;;;;5140481;27;20030;-71
2023/03/27 01:55:47;;;;;;;1.20;1.17;;;5.00;99.90;;;;;;5142729;27;20031;-72
2023/03/27 01:58:18;;;;;;;1.25;1.15;;;5.00;99.90;;;;;;5135023;27;20035;-72
2023/03/27 02:00:45;;;;;;;;;;;4.90;99.90;;;;;;5132510;27;20461;-72
2023/03/27 02:03:22;;;;;;;4.05;1.38;;;4.90;99.90;;;;;;5133802;27;19955;-71
2023/03/27 02:05:51;;;;;;;1.73;1.17;;;4.90;99.90;;;;;;5144766;27;20027;-70
2023/03/27 02:08:25;;;;;;;1.67;1.03;;;4.80;99.90;;;;;;5147424;27;20030;-72
2023/03/27 02:10:55;;;;;;;1.15;1.10;;;4.70;99.90;;;;;;5151045;27;20027;-72
2023/03/27 02:13:44;;;;;;;2.25;1.33;;;4.70;99.90;;;;;;5143167;27;20110;-71
2023/03/27 02:16:16;;;;;;;1.58;1.33;;;4.60;99.90;;;;;;5152463;27;20042;-72
2023/03/27 02:18:46;;;;;;;3.42;1.90;;;4.60;99.90;;;;;;5152116;27;20098;-72
2023/03/27 02:21:13;;;;;;;3.95;2.20;;;4.50;99.90;;;;;;5146091;27;20058;-71
2023/03/27 02:23:39;;;;;;;10.60;3.60;;;4.50;99.90;;;;;;5147480;27;20469;-71
2023/03/27 02:26:05;;;;;;;4.78;3.28;;;4.40;99.90;;;;;;5155073;27;20038;-71
2023/03/27 02:28:59;;;;;;;10.70;4.55;;;4.30;99.90;;;;;;5146424;27;20026;-71
2023/03/27 02:31:42;;;;;;;14.20;4.88;;;4.30;99.90;;;;;;5150818;27;20031;-72
2023/03/27 02:34:37;;;;;;;9.80;4.32;;;4.20;99.90;;;;;;5142837;27;20027;-71
2023/03/27 02:37:44;;;;;;;14.93;6.00;;;4.10;99.90;;;;;;5147651;27;20365;-71
2023/03/27 02:40:34;;;;;;;16.08;5.43;;;4.00;99.90;;;;;;5141310;27;20031;-71
2023/03/27 02:43:06;;;;;;;15.23;5.40;;;3.90;99.90;;;;;;5149252;27;20031;-69
2023/03/27 02:45:40;;;;;;;14.88;5.25;;;3.90;99.90;;;;;;5155576;27;20035;-72
2023/03/27 02:48:27;;;;;;;22.45;6.78;;;3.80;99.90;;;;;;5152566;27;20054;-72
2023/03/27 02:51:00;;;;;;;12.77;6.15;;;3.70;99.90;;;;;;5134954;27;20031;-72
2023/03/27 02:53:29;;;;;;;20.73;5.57;;;3.70;99.90;;;;;;5143614;27;20102;-73
2023/03/27 02:56:00;;;;;;;19.08;6.78;;;3.70;99.90;;;;;;5140560;27;20098;-73
2023/03/27 02:58:34;;;;;;;18.33;7.45;;;3.50;99.90;;;;;;5135566;27;20023;-72
2023/03/27 03:01:01;;;;;;;26.20;7.43;;;3.50;99.90;;;;;;5139037;27;20087;-67
2023/03/27 03:03:36;;;;;;;26.55;7.65;;;3.50;99.90;;;;;;5140870;27;20449;-71
2023/03/27 03:06:06;;;;;;;20.33;7.55;;;3.50;99.90;;;;;;5133835;27;20187;-71
2023/03/27 03:08:37;;;;;;;22.98;7.05;;;3.50;99.90;;;;;;5133511;27;20054;-70
2023/03/27 03:11:09;;;;;;;17.73;7.00;;;3.50;99.90;;;;;;5132861;27;20038;-70
2023/03/27 03:13:35;;;;;;;19.80;7.05;;;3.50;99.90;;;;;;5144706;27;20037;-72
2023/03/27 03:16:01;;;;;;;14.10;5.95;;;3.40;99.90;;;;;;5142850;27;20019;-70
2023/03/27 03:18:26;;;;;;;28.95;7.57;;;3.40;99.90;;;;;;5144424;27;20027;-70
2023/03/27 03:20:55;;;;;;;24.05;7.60;;;3.30;99.90;;;;;;5150975;27;20019;-71
2023/03/27 03:23:21;;;;;;;21.83;7.53;;;3.30;99.90;;;;;;5154049;27;20033;-71
2023/03/27 03:25:51;;;;;;;16.77;6.70;;;3.20;99.90;;;;;;5141060;27;20023;-71
2023/03/27 03:28:17;;;;;;;25.23;8.93;;;3.10;99.90;;;;;;5141441;27;20019;-71
2023/03/27 03:30:46;;;;;;;23.20;7.78;;;3.10;99.90;;;;;;5144800;27;20384;-71
2023/03/27 03:33:13;;;;;;;24.90;7.05;;;3.20;99.90;;;;;;5133720;27;20060;-72
2023/03/27 03:35:39;;;;;;;22.48;7.78;;;3.20;99.90;;;;;;5136809;27;20022;-71
2023/03/27 03:38:05;;;;;;;26.73;7.05;;;3.10;99.90;;;;;;5153732;27;20042;-72
2023/03/27 03:40:31;;;;;;;24.75;6.47;;;3.20;99.90;;;;;;5144075;27;20027;-72
2023/03/27 03:42:57;;;;;;;20.17;7.10;;;3.20;99.90;;;;;;5154582;27;20023;-72
2023/03/27 03:45:23;;;;;;;25.00;7.07;;;3.20;99.90;;;;;;5152503;27;20412;-72
2023/03/27 03:47:49;;;;;;;24.20;6.60;;;3.20;99.90;;;;;;5138337;27;20050;-72
2023/03/27 03:50:15;;;;;;;24.13;7.47;;;3.10;99.90;;;;;;5151972;27;20102;-71
2023/03/27 03:52:41;;;;;;;24.13;7.30;;;3.00;99.90;;;;;;5145511;27;20034;-70
2023/03/27 03:55:09;;;;;;;30.38;7.28;;;3.00;99.90;;;;;;5145293;27;20508;-72
2023/03/27 03:57:35;;;;;;;33.15;7.45;;;3.10;99.90;;;;;;5146793;27;20114;-71
2023/03/27 04:00:07;;;;;;;20.02;5.78;;;3.00;99.90;;;;;;5149881;27;20102;-69
2023/03/27 04:02:33;;;;;;;20.35;5.53;;;3.00;99.90;;;;;;5137502;27;20033;-71
2023/03/27 04:05:00;;;;;;;23.15;5.22;;;3.00;99.90;;;;;;5135770;27;20027;-68
2023/03/27 04:07:30;;;;;;;26.48;5.65;;;3.10;99.90;;;;;;5145372;27;20045;-73
2023/03/27 04:09:58;;;;;;;17.75;5.30;;;3.00;99.90;;;;;;5141677;27;20164;-71
2023/03/27 04:12:25;;;;;;;30.45;4.68;;;3.10;99.90;;;;;;5134046;27;20043;-71
2023/03/27 04:14:52;;;;;;;13.15;4.28;;;3.00;99.90;;;;;;5141184;27;20034;-73
2023/03/27 04:17:17;;;;;;;18.52;5.28;;;2.90;99.90;;;;;;5152923;27;20562;-73
2023/03/27 04:19:45;;;;;;;12.95;4.10;;;2.80;99.90;;;;;;5154225;27;20218;-73
2023/03/27 04:22:11;;;;;;;15.35;3.63;;;2.70;99.90;;;;;;5143268;27;20473;-72
2023/03/27 04:24:37;;;;;;;25.80;5.57;;;2.70;99.90;;;;;;5144174;27;20027;-73
2023/03/27 04:27:04;;;;;;;15.07;3.90;;;2.60;99.90;;;;;;5141792;27;20033;-71
2023/03/27 04:29:30;;;;;;;14.13;3.58;;;2.60;99.90;;;;;;5134944;27;20161;-73
2023/03/27 04:31:57;;;;;;;12.32;3.67;;;2.50;99.90;;;;;;5147201;27;20034;-73
2023/03/27 04:34:23;;;;;;;12.85;3.90;;;2.50;99.90;;;;;;5152759;27;20023;-72
2023/03/27 04:36:50;;;;;;;20.05;4.10;;;2.40;99.90;;;;;;5151923;27;20065;-72
2023/03/27 04:39:16;;;;;;;17.67;3.65;;;2.40;99.90;;;;;;5149947;27;20030;-72
2023/03/27 04:41:47;;;;;;;18.05;3.22;;;2.50;99.90;;;;;;5131938;27;20478;-72
2023/03/27 04:44:16;;;;;;;18.85;3.80;;;2.50;99.90;;;;;;5149970;27;20477;-71
2023/03/27 04:46:43;;;;;;;16.70;2.93;;;2.50;99.90;;;;;;5132791;27;20043;-72
2023/03/27 04:49:09;;;;;;;18.60;3.15;;;2.40;99.90;;;;;;5132330;27;20023;-72
2023/03/27 04:51:35;;;;;;;20.13;4.18;;;2.40;99.90;;;;;;5135252;27;20087;-73
2023/03/27 04:54:04;;;;;;;18.88;3.22;;;2.30;99.90;;;;;;5136327;27;20496;-70
2023/03/27 04:56:32;;;;;;;13.30;2.65;;;2.20;99.90;;;;;;5151120;27;20034;-72
2023/03/27 04:59:04;;;;;;;20.45;4.10;;;2.30;99.90;;;;;;5143103;27;20359;-70
2023/03/27 05:01:30;;;;;;;16.80;2.17;;;2.20;99.90;;;;;;5139963;27;20035;-69
2023/03/27 05:03:56;;;;;;;13.93;2.58;;;2.10;99.90;;;;;;5153308;27;20425;-72
2023/03/27 05:06:22;;;;;;;15.18;2.60;;;2.10;99.90;;;;;;5132508;27;20031;-72
2023/03/27 05:08:48;;;;;;;11.38;2.10;;;2.10;99.90;;;;;;5137030;27;20023;-72
2023/03/27 05:11:13;;;;;;;14.98;2.28;;;2.00;99.90;;;;;;5151929;27;20090;-74
2023/03/27 05:13:39;;;;;;;12.75;2.53;;;2.00;99.90;;;;;;5135057;27;20031;-73
2023/03/27 05:16:07;;;;;;;10.05;1.90;;;1.90;99.90;;;;;;5137819;27;20026;-74
2023/03/27 05:18:33;;;;;;;9.93;2.47;;;1.80;99.90;;;;;;5141518;27;20026;-76
2023/03/27 05:20:59;;;;;;;11.95;2.13;;;1.80;99.90;;;;;;5142245;27;20031;-69
2023/03/27 05:23:25;;;;;;;12.25;2.20;;;1.80;99.90;;;;;;5139059;27;20046;-73
2023/03/27 05:25:51;;;;;;;18.20;1.98;;;1.90;99.90;;;;;;5147151;27;20029;-72
2023/03/27 05:28:17;;;;;;;11.60;1.83;;;1.90;99.90;;;;;;5142744;27;20477;-72
2023/03/27 05:30:43;;;;;;;9.43;1.80;;;1.90;99.90;;;;;;5148695;27;20478;-75
2023/03/27 05:33:12;;;;;;;12.80;2.15;;;1.90;99.90;;;;;;5131909;27;20027;-74
2023/03/27 05:35:40;;;;;;;13.50;1.63;;;1.90;99.90;;;;;;5147460;27;20019;-72
2023/03/27 05:38:07;;;;;;;17.33;2.40;;;1.90;99.90;;;;;;5132633;27;20373;-73
2023/03/27 05:40:33;;;;;;;11.93;1.70;;;1.90;99.90;;;;;;5135815;27;20038;-73
2023/03/27 05:42:59;;;;;;;10.77;1.90;;;1.80;99.90;;;;;;5139252;27;20133;-68
2023/03/27 05:45:25;;;;;;;15.23;1.90;;;1.80;99.90;;;;;;5142532;27;20039;-74
2023/03/27 05:47:56;;;;;;;15.40;2.97;;;1.80;99.90;;;;;;5142523;27;20129;-72
2023/03/27 05:50:25;;;;;;;15.52;1.98;;;1.80;99.90;;;;;;5128728;27;20711;-74
2023/03/27 05:52:58;;;;;;;11.00;1.30;;;1.80;99.90;;;;;;5131975;27;20030;-74
2023/03/27 05:55:25;;;;;;;16.20;1.95;;;1.80;99.90;;;;;;5134169;27;20023;-76
2023/03/27 05:57:50;;;;;;;14.23;2.28;;;1.80;99.90;;;;;;5129311;27;20031;-71
2023/03/27 06:00:21;;;;;;;12.63;1.92;;;1.90;99.90;;;;;;5142232;27;20018;-70
2023/03/27 06:02:48;;;;;;;14.02;1.90;;;1.90;99.90;;;;;;5153769;27;20121;-69
2023/03/27 06:05:15;;;;;;;17.48;2.22;;;1.90;99.90;;;;;;5097728;27;20110;-69
2023/03/27 06:07:42;;;;;;;13.23;2.00;;;2.00;99.90;;;;;;5136476;27;20113;-70
2023/03/27 06:10:11;;;;;;;7.50;1.60;;;2.00;99.90;;;;;;5142744;27;20030;-71
2023/03/27 06:12:37;;;;;;;18.02;2.42;;;1.90;99.90;;;;;;5135056;27;20081;-70
2023/03/27 06:15:08;;;;;;;18.67;2.88;;;2.00;99.90;;;;;;5140938;27;20026;-69
2023/03/27 06:17:34;;;;;;;13.15;2.20;;;1.90;99.90;;;;;;5128544;27;20039;-70
2023/03/27 06:20:01;;;;;;;16.63;2.22;;;1.90;99.90;;;;;;5132615;27;20394;-69
2023/03/27 06:22:27;;;;;;;13.75;1.90;;;1.90;99.90;;;;;;5149697;27;20030;-72
2023/03/27 06:24:53;;;;;;;15.65;2.17;;;2.00;99.90;;;;;;5144318;27;20495;-71
2023/03/27 06:27:20;;;;;;;12.15;2.13;;;2.00;99.90;;;;;;5140038;27;20087;-71
2023/03/27 06:29:46;;;;;;;15.40;1.92;;;2.00;99.90;;;;;;5144329;27;20031;-71
2023/03/27 06:32:12;;;;;;;10.93;1.73;;;2.00;99.90;;;;;;5146587;27;20026;-73
2023/03/27 06:34:38;;;;;;;11.55;2.13;;;2.10;99.90;;;;;;5143444;27;20110;-69
2023/03/27 06:37:04;;;;;;;11.43;1.85;;;2.00;99.90;;;;;;5141479;27;20106;-69
2023/03/27 06:39:29;;;;;;;18.90;2.55;;;2.00;99.90;;;;;;5139341;27;20024;-70
2023/03/27 06:41:55;;;;;;;14.45;2.38;;;2.10;99.90;;;;;;5119480;28;20034;-70
2023/03/27 06:44:21;;;;;;;14.43;3.50;;;2.20;99.90;;;;;;5140574;27;20027;-72
2023/03/27 06:46:47;;;;;;;10.95;2.00;;;2.20;99.90;;;;;;5135682;27;20053;-70
2023/03/27 06:49:13;;;;;;;7.78;1.77;;;2.20;99.90;;;;;;5140556;27;20027;-70
2023/03/27 06:51:38;;;;;;;11.85;1.83;;;2.40;99.90;;;;;;5141251;27;20359;-70
2023/03/27 06:54:04;;;;;;;10.52;1.88;;;2.50;99.90;;;;;;5140737;27;20034;-70
2023/03/27 06:56:30;;;;;;;11.13;1.60;;;2.50;99.90;;;;;;5140132;27;20050;-70
2023/03/27 06:58:55;;;;;;;16.73;1.98;;;2.50;99.90;;;;;;5153815;27;20426;-70
2023/03/27 07:01:21;;;;;;;10.40;1.55;;;2.50;99.90;;;;;;5142744;27;20035;-69
2023/03/27 07:03:47;;;;;;;12.82;1.33;;;2.50;99.90;;;;;;5147829;27;20031;-70
2023/03/27 07:06:13;;;;;;;14.20;1.63;;;2.50;99.90;;;;;;5147932;27;20023;-70
2023/03/27 07:08:38;;;;;;;10.25;1.90;;;2.50;99.90;;;;;;5151628;27;20031;-70
2023/03/27 07:11:04;;;;;;;14.27;2.50;;;2.60;99.90;;;;;;5145775;27;20380;-69
2023/03/27 07:13:30;;;;;;;13.70;2.20;;;2.60;99.90;;;;;;5151527;27;20031;-69
2023/03/27 07:15:56;;;;;;;14.27;2.20;;;2.70;99.90;;;;;;5154764;27;20034;-70
2023/03/27 07:18:21;;;;;;;9.25;1.73;;;2.80;99.90;;;;;;5146517;27;20046;-70
2023/03/27 07:20:49;;;;;;;8.35;1.50;;;2.80;99.90;;;;;;5135708;27;20113;-73
2023/03/27 07:23:14;;;;;;;12.25;1.80;;;2.80;99.90;;;;;;5143692;27;20472;-70
2023/03/27 07:25:40;;;;;;;4.68;1.20;;;2.80;99.90;;;;;;5148258;27;20039;-69
2023/03/27 07:28:13;;;;;;;9.07;1.65;;;2.80;99.90;;;;;;5140432;27;20110;-70
2023/03/27 07:30:40;;;;;;;10.73;1.52;;;2.90;99.90;;;;;;5145407;27;20027;-71
2023/03/27 07:33:08;;;;;;;19.80;2.00;;;3.00;99.90;;;;;;5149218;27;20038;-70
2023/03/27 07:35:34;;;;;;;11.50;1.92;;;3.20;99.90;;;;;;5149183;27;20181;-70
2023/03/27 07:38:02;;;;;;;8.90;1.70;;;3.40;99.90;;;;;;5147352;27;20023;-67
2023/03/27 07:40:27;;;;;;;7.85;1.27;;;3.70;99.90;;;;;;5151045;27;20153;-70
2023/03/27 07:42:53;;;;;;;12.55;1.85;;;3.80;99.90;;;;;;5141307;27;20254;-70
2023/03/27 07:45:20;;;;;;;10.05;1.73;;;3.80;99.90;;;;;;5145680;27;20118;-71
2023/03/27 07:47:47;;;;;;;14.40;2.42;;;3.80;99.90;;;;;;5142030;27;20031;-71
2023/03/27 07:50:14;;;;;;;12.32;1.50;;;3.70;99.90;;;;;;5145585;27;20033;-70
2023/03/27 07:52:43;;;;;;;8.85;1.90;;;3.60;99.90;;;;;;5133138;27;20035;-70
2023/03/27 07:55:11;;;;;;;8.63;1.77;;;3.60;99.90;;;;;;5145583;27;20027;-70
2023/03/27 07:57:45;;;;;;;13.20;1.75;;;3.50;99.90;;;;;;5143253;27;20087;-70
2023/03/27 08:00:11;;;;;;;10.45;1.52;;;3.60;99.90;;;;;;5143799;27;20123;-70
2023/03/27 08:02:38;;;;;;;10.73;1.58;;;3.60;99.90;;;;;;5129036;27;20039;-71
2023/03/27 08:05:05;;;;;;;8.32;1.77;;;3.60;99.90;;;;;;5138843;27;20113;-69
2023/03/27 08:07:31;;;;;;;13.85;2.75;;;3.60;99.90;;;;;;5142899;27;20483;-71
2023/03/27 08:09:56;;;;;;;14.18;1.95;;;3.60;99.90;;;;;;5146032;27;20029;-71
2023/03/27 08:12:22;;;;;;;6.20;1.38;;;3.60;99.90;;;;;;5144058;27;20031;-71
2023/03/27 08:14:48;;;;;;;7.68;1.40;;;3.70;99.90;;;;;;5152926;27;20031;-70
2023/03/27 08:17:13;;;;;;;8.35;1.50;;;3.80;99.90;;;;;;5150182;27;20033;-70
2023/03/27 08:19:40;;;;;;;12.77;2.33;;;3.80;99.90;;;;;;5144449;27;20057;-70
2023/03/27 08:22:06;;;;;;;8.20;1.40;;;3.80;99.90;;;;;;5140660;27;20094;-71
2023/03/27 08:24:31;;;;;;;7.53;1.80;;;3.80;99.90;;;;;;5144379;27;20480;-70
2023/03/27 08:26:57;;;;;;;10.07;1.30;;;3.90;99.90;;;;;;5141637;27;20023;-70
2023/03/27 08:29:22;;;;;;;13.90;1.65;;;3.90;99.90;;;;;;5149956;27;20034;-71
2023/03/27 08:31:48;;;;;;;9.32;1.65;;;3.90;99.90;;;;;;5144316;27;20030;-72
2023/03/27 08:34:14;;;;;;;13.18;1.98;;;3.90;99.90;;;;;;5144884;27;20041;-71
2023/03/27 08:36:39;;;;;;;10.35;2.72;;;4.10;99.90;;;;;;5144196;27;20030;-71
2023/03/27 08:39:06;;;;;;;8.38;1.83;;;4.10;99.90;;;;;;5142730;27;20027;-71
2023/03/27 08:41:41;;;;;;;8.30;1.38;;;4.20;99.90;;;;;;5141891;27;20054;-71
2023/03/27 08:44:13;;;;;;;7.35;1.40;;;4.20;99.90;;;;;;5147981;27;20034;-72
2023/03/27 08:46:51;;;;;;;6.95;1.23;;;4.30;99.90;;;;;;5149681;27;20077;-72
2023/03/27 08:49:21;;;;;;;12.45;1.63;;;4.30;99.90;;;;;;5136164;27;20043;-72
2023/03/27 08:51:52;;;;;;;14.00;2.05;;;4.40;99.90;;;;;;5137345;27;20063;-72
2023/03/27 08:54:31;;;;;;;8.45;1.60;;;4.40;99.90;;;;;;5149717;27;20031;-71
2023/03/27 08:56:57;;;;;;;11.50;1.45;;;4.30;99.90;;;;;;5150287;27;20035;-71
2023/03/27 08:59:29;;;;;;;7.90;1.05;;;4.20;99.90;;;;;;5142341;27;20031;-72
2023/03/27 09:02:37;;;;;;;8.25;1.50;;;4.20;99.90;;;;;;5149743;27;20035;-72
2023/03/27 09:05:15;;;;;;;5.45;1.10;;;4.30;99.90;;;;;;5149046;27;20490;-69
2023/03/27 09:07:58;;;;;;;5.72;1.50;;;4.20;99.90;;;;;;5149167;27;20035;-72
2023/03/27 09:10:28;;;;;;;8.25;1.48;;;4.30;99.90;;;;;;5143397;27;20027;-72
2023/03/27 09:13:00;;;;;;;11.73;1.10;;;4.40;99.90;;;;;;5152195;27;20038;-71
2023/03/27 09:15:33;;;;;;;7.60;1.40;;;4.40;99.90;;;;;;5143067;27;20027;-71
2023/03/27 09:18:26;;;;;;;6.85;1.23;;;4.40;99.90;;;;;;5143754;27;20027;-68
2023/03/27 09:20:55;;;;;;;8.60;1.42;;;4.50;99.90;;;;;;5092838;27;20042;-72
2023/03/27 09:23:37;;;;;;;11.00;1.27;;;4.60;99.90;;;;;;5134627;27;20343;-71
2023/03/27 09:26:27;;;;;;;6.07;1.30;;;4.80;99.90;;;;;;5145473;27;20038;-72
2023/03/27 09:29:09;;;;;;;6.13;1.40;;;4.80;99.90;;;;;;5137314;27;20031;-71
2023/03/27 09:31:43;;;;;;;7.03;1.50;;;4.90;99.90;;;;;;5141822;27;20023;-71
2023/03/27 09:34:13;;;;;;;5.90;1.13;;;4.90;99.90;;;;;;5150784;27;20448;-71
2023/03/27 09:36:40;;;;;;;5.70;1.02;;;4.90;99.90;;;;;;5142548;27;20109;-71
2023/03/27 09:39:11;;;;;;;8.35;1.20;;;4.90;99.90;;;;;;5142271;27;20038;-70
2023/03/27 09:41:40;;;;;;;5.57;1.10;;;4.90;99.90;;;;;;5145728;27;20083;-71
2023/03/27 09:44:11;;;;;;;6.57;1.25;;;4.90;99.90;;;;;;5151248;27;20035;-70
2023/03/27 09:46:42;;;;;;;12.95;1.88;;;5.00;99.90;;;;;;5149155;27;20434;-72
2023/03/27 09:49:13;;;;;;;5.47;1.20;;;4.80;99.90;;;;;;5150398;27;20027;-70
2023/03/27 09:51:50;;;;;;;10.48;1.30;;;5.00;99.90;;;;;;5150340;27;20035;-71
2023/03/27 09:54:19;;;;;;;5.13;1.27;;;4.90;99.90;;;;;;5142999;27;20027;-71
2023/03/27 09:56:50;;;;;;;6.95;1.20;;;5.10;99.90;;;;;;5133642;27;20465;-71
2023/03/27 09:59:29;;;;;;;8.40;1.17;;;5.10;99.90;;;;;;5145004;27;20015;-71
2023/03/27 10:02:08;;;;;;;7.07;1.17;;;5.20;99.90;;;;;;5138401;27;20042;-72
2023/03/27 10:04:34;;;;;;;8.88;1.05;;;5.30;99.50;;;;;;5138270;27;20031;-72
2023/03/27 10:07:07;;;;;;;9.02;1.20;;;5.30;99.90;;;;;;5144705;27;20107;-68
2023/03/27 10:09:37;;;;;;;6.70;1.45;;;5.30;99.30;;;;;;5143135;27;20027;-72
2023/03/27 10:12:06;;;;;;;7.80;1.20;;;5.30;99.90;;;;;;5140552;27;20046;-71
2023/03/27 10:14:44;;;;;;;3.60;1.00;;;5.30;98.40;;;;;;5148579;27;20377;-71
2023/03/27 10:17:22;;;;;;;7.55;1.00;;;5.30;99.20;;;;;;5142843;27;20031;-71
2023/03/27 10:19:51;;;;;;;11.02;1.20;;;5.50;98.40;;;;;;5129316;27;20102;-70
2023/03/27 10:22:20;;;;;;;7.82;1.17;;;5.60;98.40;;;;;;5142774;27;20106;-71
2023/03/27 10:24:46;;;;;;;5.68;1.10;;;5.70;99.80;;;;;;5143032;27;20087;-71
2023/03/27 10:27:23;;;;;;;7.55;1.40;;;5.80;98.40;;;;;;5137248;27;20469;-70
2023/03/27 10:29:49;;;;;;;7.75;1.23;;;5.70;97.20;;;;;;5149969;27;20117;-70
2023/03/27 10:32:14;;;;;;;6.45;1.27;;;5.60;96.50;;;;;;5133778;27;20063;-71
2023/03/27 10:34:56;;;;;;;5.05;1.00;;;5.70;95.40;;;;;;5139316;27;20035;-70
2023/03/27 10:37:30;;;;;;;7.60;1.77;;;5.80;95.90;;;;;;5151167;27;20126;-71
2023/03/27 10:40:00;;;;;;;7.63;1.27;;;6.00;96.60;;;;;;5135166;27;20122;-71
2023/03/27 10:42:30;;;;;;;7.07;1.30;;;6.20;96.40;;;;;;5152953;27;20035;-72
2023/03/27 10:44:56;;;;;;;5.22;1.08;;;6.40;96.40;;;;;;5151401;27;20149;-71
2023/03/27 10:47:25;;;;;;;6.53;1.25;;;6.60;96.60;;;;;;5136085;27;20119;-70
2023/03/27 10:50:37;;;;;;;11.55;1.80;;;6.60;95.70;;;;;;5148796;27;20055;-70
2023/03/27 10:53:29;;;;;;;9.63;1.10;;;6.60;95.60;;;;;;5112121;27;20113;-71
2023/03/27 10:56:25;;;;;;;6.13;1.40;;;6.40;92.80;;;;;;5135271;27;20162;-72
2023/03/27 10:59:07;;;;;;;7.60;0.98;;;6.40;92.90;;;;;;5128100;27;20023;-72
2023/03/27 11:01:38;;;;;;;5.75;1.23;;;6.50;92.70;;;;;;5132098;27;20473;-75
2023/03/27 11:04:14;;;;;;;5.57;1.10;;;6.70;91.60;;;;;;5143498;27;20059;-74
2023/03/27 11:06:42;;;;;;;8.68;1.85;;;7.00;92.50;;;;;;5134809;27;20442;-72
2023/03/27 11:09:30;;;;;;;8.75;1.90;;;7.30;94.00;;;;;;5133834;27;20122;-74
2023/03/27 11:12:03;;;;;;;9.40;1.67;;;7.60;94.50;;;;;;5134748;27;20035;-72
2023/03/27 11:14:51;;;;;;;10.35;1.33;;;7.90;93.00;;;;;;5152494;27;20023;-73
2023/03/27 11:17:22;;;;;;;9.32;1.83;;;8.10;91.60;;;;;;5128841;27;20106;-73
2023/03/27 11:19:52;;;;;;;6.93;1.40;;;8.50;90.40;;;;;;5137779;27;20031;-70
2023/03/27 11:22:33;;;;;;;5.97;1.30;;;8.80;88.70;;;;;;5148130;27;20046;-70
2023/03/27 11:25:14;;;;;;;9.18;1.20;;;8.80;88.70;;;;;;5146106;27;20084;-69
2023/03/27 11:27:46;;;;;;;4.80;1.13;;;8.30;86.20;;;;;;5134681;27;20035;-71
2023/03/27 11:30:30;;;;;;;4.35;0.90;;;8.10;88.20;;;;;;5133128;27;20103;-70
2023/03/27 11:33:34;;;;;;;5.85;0.95;;;8.10;87.00;;;;;;5148392;27;20034;-70
2023/03/27 11:36:34;;;;;;;5.57;1.10;;;8.60;87.10;;;;;;5147235;27;20083;-69
2023/03/27 11:39:15;;;;;;;7.03;1.00;;;8.60;85.30;;;;;;5129327;27;20023;-69
2023/03/27 11:41:51;;;;;;;8.30;1.33;;;8.30;86.70;;;;;;5146704;27;20031;-71
2023/03/27 11:44:16;;;;;;;6.90;1.70;;;7.80;88.50;;;;;;5152523;27;20472;-70
2023/03/27 11:46:51;;;;;;;6.10;1.13;;;7.50;90.80;;;;;;5152256;27;20054;-70
2023/03/27 11:49:40;;;;;;;6.50;1.67;;;7.40;91.70;;;;;;5152802;27;20505;-71
2023/03/27 11:52:39;;;;;;;6.45;1.63;;;7.30;91.90;;;;;;5136934;27;20075;-69
2023/03/27 11:55:31;;;;;;;7.22;1.10;;;7.30;91.40;;;;;;5143258;27;20037;-70
2023/03/27 11:58:25;;;;;;;5.55;1.80;;;7.60;91.30;;;;;;5139035;27;20469;-70
2023/03/27 12:01:11;;;;;;;6.18;1.10;;;8.20;90.10;;;;;;5135800;27;20035;-71
2023/03/27 12:04:04;;;;;;;4.90;1.13;;;;;;;;;;5152186;27;20038;-71
2023/03/27 12:06:41;;;;;;;8.18;1.20;;;9.70;86.60;;;;;;5143870;27;20055;-71
2023/03/27 12:09:14;;;;;;;8.93;1.40;;;;;;;;;;5142057;27;20035;-71
2023/03/27 12:11:44;;;;;;;8.45;1.17;;;;;;;;;;5154021;27;20029;-71
2023/03/27 12:14:29;;;;;;;9.57;1.05;;;;;;;;;;5140998;27;20117;-71
2023/03/27 12:16:55;;;;;;;5.88;1.60;;;;;;;;;;5145055;27;20479;-71
2023/03/27 12:19:40;;;;;;;5.03;0.88;;;;;;;;;;5150810;27;20022;-71
2023/03/27 12:22:12;;;;;;;6.20;1.48;;;;;;;;;;5152716;27;20027;-71
2023/03/27 12:24:56;;;;;;;1.48;0.70;;;;;;;;;;5149892;27;20035;-71
2023/03/27 12:27:53;;;;;;;5.22;1.40;;;11.30;76.00;;;;;;5150043;27;20034;-71
2023/03/27 12:30:44;;;;;;;5.80;1.15;;;11.60;75.00;;;;;;5151869;27;20046;-71
2023/03/27 12:33:27;;;;;;;6.22;0.90;;;11.60;73.40;;;;;;5141581;27;20065;-71
2023/03/27 12:35:57;;;;;;;4.47;1.35;;;11.50;73.80;;;;;;5135780;27;20026;-72
2023/03/27 12:38:28;;;;;;;4.00;1.00;;;11.10;73.10;;;;;;5136191;27;20051;-72
2023/03/27 12:41:23;;;;;;;5.15;1.10;;;10.60;72.00;;;;;;5146236;27;20073;-71
2023/03/27 12:43:55;;;;;;;5.45;1.13;;;9.70;73.10;;;;;;5138092;27;20389;-72
2023/03/27 12:46:23;;;;;;;4.90;0.90;;;9.30;76.10;;;;;;5140734;27;20047;-72
2023/03/27 12:49:09;;;;;;;4.00;1.05;;;9.10;76.80;;;;;;5148205;27;20029;-70
2023/03/27 12:51:52;;;;;;;7.00;1.20;;;9.60;77.10;;;;;;5137282;27;20037;-72
2023/03/27 12:54:18;;;;;;;7.57;1.27;;;10.10;76.20;;;;;;5144208;27;20087;-70
2023/03/27 12:57:14;;;;;;;6.28;1.02;;;10.10;76.20;;;;;;5144446;27;20023;-72
2023/03/27 12:59:58;;;;;;;7.15;0.85;;;9.90;76.70;;;;;;5128034;27;20027;-71
2023/03/27 13:02:56;;;;;;;6.65;1.15;;;10.10;78.50;;;;;;5143734;27;20093;-73
2023/03/27 13:05:27;;;;;;;4.47;0.98;;;9.90;78.40;;;;;;5151217;27;20038;-71
2023/03/27 13:07:55;;;;;;;5.60;1.02;;;9.80;79.10;;;;;;5140775;27;20023;-72
2023/03/27 13:10:52;;;;;;;5.65;0.90;;;10.10;78.10;;;;;;5140473;27;20030;-71
2023/03/27 13:13:31;;;;;;;5.80;1.10;;;10.40;78.20;;;;;;5138252;27;20471;-71
2023/03/27 13:16:17;;;;;;;7.85;1.02;;;10.40;77.00;;;;;;5141117;27;20031;-73
2023/03/27 13:18:48;;;;;;;6.43;1.15;;;10.10;78.90;;;;;;5142915;27;20094;-71
2023/03/27 13:21:31;;;;;;;6.32;1.00;;;9.50;79.40;;;;;;5140523;27;20448;-71